Bradford, Illinois
Current Conditions -  °F | °C
As of 4:35 PM on Friday 24 Oct 2014 (Local Time) from KC75 Reporting Station
Clear Clear  
Wind Chill: 64°   Ceiling: Unl
Heat Index: 64°   Visibility: 10mi
Dew Point: 45°   Wind: 9mph
Humidity: 50%   Direction: 220°SW
Pressure: 29.96"   Gusts: NA
Location:  41.18°N, 89.66°W
Report Text: KC75 242135Z AUTO 22008KT 10SM CLR 18/07 A2996 RMK AO2 T01800074
Loading
Personal Weather Stations






























Interactive Weather Map
Tropical Storm Tracking
New forecast layout! Learn more

10-Day Weather Forecast

Advertisements
Track Severe Weather on mobile